Time;durP1;ratioP1;P1;durP2;ratioP2;P2;SDS_P1;SDS_P2;PMS_P1;PMS_P2;Temp;Humidity;BMP_temperature;BMP_pressure;BME280_temperature;BME280_humidity;BME280_pressure;Samples;Min_cycle;Max_cycle;Signal;HPM_P1;HPM_P2
2021/10/06 00:01:01;;;;;;;14.68;7.28;;;;;;;7.69;100.00;101256.72;4957920;28;20047;-65
2021/10/06 00:03:28;;;;;;;14.32;7.00;;;;;;;7.68;100.00;101257.72;4967407;28;20034;-64
2021/10/06 00:05:53;;;;;;;16.83;9.05;;;;;;;7.71;100.00;101266.28;4972717;28;20221;-65
2021/10/06 00:08:19;;;;;;;20.13;10.50;;;;;;;7.76;100.00;101260.50;4962266;28;20673;-69
2021/10/06 00:10:47;;;;;;;21.45;9.02;;;;;;;7.84;100.00;101265.97;4990934;28;20037;-63
2021/10/06 00:13:14;;;;;;;23.08;12.02;;;;;;;7.88;100.00;101259.31;4971311;28;20066;-64
2021/10/06 00:15:44;;;;;;;17.52;11.15;;;;;;;7.97;100.00;101259.47;4986429;28;20064;-67
2021/10/06 00:18:11;;;;;;;9.90;5.72;;;;;;;7.96;100.00;101253.25;4974900;28;20041;-67
2021/10/06 00:20:37;;;;;;;8.88;5.18;;;;;;;7.97;100.00;101254.94;4955500;28;20034;-66
2021/10/06 00:23:03;;;;;;;10.57;4.78;;;;;;;7.93;100.00;101240.97;4989548;28;20045;-68
2021/10/06 00:25:29;;;;;;;7.20;3.53;;;;;;;7.93;100.00;101248.19;4973621;28;20038;-66
2021/10/06 00:27:55;;;;;;;8.30;3.97;;;;;;;7.91;100.00;101248.34;4986077;28;20383;-67
2021/10/06 00:30:21;;;;;;;6.75;3.83;;;;;;;7.89;100.00;101247.63;4989216;28;20037;-66
2021/10/06 00:32:47;;;;;;;7.60;3.60;;;;;;;7.87;100.00;101246.94;4956927;28;20038;-65
2021/10/06 00:35:13;;;;;;;6.53;3.42;;;;;;;7.86;100.00;101247.94;4987975;28;20103;-68
2021/10/06 00:37:39;;;;;;;9.40;3.58;;;;;;;7.82;100.00;101273.28;4991520;28;20062;-66
2021/10/06 00:40:05;;;;;;;46.15;19.10;;;;;;;7.78;100.00;101265.69;5003115;28;20074;-66
2021/10/06 00:42:36;;;;;;;44.10;20.15;;;;;;;7.77;100.00;101264.84;4985455;28;21813;-70
2021/10/06 00:45:02;;;;;;;33.33;15.73;;;;;;;7.77;100.00;101258.66;4974657;28;20117;-66
2021/10/06 00:47:29;;;;;;;31.50;14.35;;;;;;;7.77;100.00;101275.56;4984009;28;20535;-64
2021/10/06 00:49:55;;;;;;;29.08;13.48;;;;;;;7.80;100.00;101275.28;4958316;28;20042;-65
2021/10/06 00:52:23;;;;;;;23.23;11.00;;;;;;;7.75;100.00;101266.81;4951280;28;20054;-65
2021/10/06 00:54:49;;;;;;;21.27;8.45;;;;;;;7.80;100.00;101280.63;4990384;28;20054;-66
2021/10/06 00:57:15;;;;;;;15.52;7.70;;;;;;;7.82;100.00;101280.50;4989587;28;20030;-66
2021/10/06 00:59:41;;;;;;;16.65;7.57;;;;;;;7.82;100.00;101270.63;4957849;28;20041;-65
2021/10/06 01:02:06;;;;;;;15.80;8.23;;;;;;;7.87;100.00;101272.88;4975896;28;20395;-65
2021/10/06 01:04:33;;;;;;;12.18;6.20;;;;;;;7.84;100.00;101265.13;4971693;28;20125;-65
2021/10/06 01:06:59;;;;;;;16.00;6.10;;;;;;;7.86;100.00;101263.16;5004209;28;20213;-65
2021/10/06 01:09:27;;;;;;;10.52;5.63;;;;;;;7.89;100.00;101269.06;4985643;28;20502;-63
2021/10/06 01:11:54;;;;;;;6.93;4.15;;;;;;;7.88;100.00;101255.81;4994992;28;20044;-65
2021/10/06 01:14:21;;;;;;;9.75;4.07;;;;;;;7.88;100.00;101255.81;4984471;28;20034;-67
2021/10/06 01:16:47;;;;;;;8.57;3.63;;;;;;;7.85;100.00;101245.38;4985906;28;20105;-64
2021/10/06 01:19:21;;;;;;;8.20;3.58;;;;;;;7.81;100.00;101241.34;4986077;28;20475;-65
2021/10/06 01:21:48;;;;;;;5.80;2.45;;;;;;;7.78;100.00;101236.25;4986244;28;20037;-65
2021/10/06 01:24:14;;;;;;;9.90;3.15;;;;;;;7.73;100.00;101244.75;4984630;28;20132;-66
2021/10/06 01:26:40;;;;;;;6.55;3.20;;;;;;;7.74;100.00;101243.72;4959376;28;20213;-67
2021/10/06 01:29:05;;;;;;;7.88;3.10;;;;;;;7.77;100.00;101242.59;4987027;28;20124;-64
2021/10/06 01:31:31;;;;;;;9.93;2.90;;;;;;;7.81;100.00;101246.69;4982223;28;20457;-67
2021/10/06 01:33:57;;;;;;;6.00;2.90;;;;;;;7.80;100.00;101239.63;4980558;28;20030;-66
2021/10/06 01:36:23;;;;;;;8.38;3.40;;;;;;;7.87;100.00;101240.75;4982743;28;20063;-64
2021/10/06 01:38:48;;;;;;;6.65;2.90;;;;;;;7.87;100.00;101235.38;4954913;28;20049;-65
2021/10/06 01:41:14;;;;;;;9.50;3.55;;;;;;;7.92;100.00;101238.47;4983788;28;20038;-65
2021/10/06 01:43:40;;;;;;;4.72;3.00;;;;;;;7.90;100.00;101238.59;4984276;28;20030;-64
2021/10/06 01:46:05;;;;;;;5.15;2.65;;;;;;;7.85;100.00;101232.84;4987311;28;20050;-68
2021/10/06 01:48:31;;;;;;;8.23;3.22;;;;;;;7.78;100.00;101229.09;4968015;28;20462;-70
2021/10/06 01:50:57;;;;;;;7.32;2.75;;;;;;;7.76;100.00;101235.56;4957959;28;20490;-66
2021/10/06 01:53:23;;;;;;;5.07;2.40;;;;;;;7.73;100.00;101236.72;4985838;28;20045;-65
2021/10/06 01:55:48;;;;;;;4.57;2.90;;;;;;;7.67;100.00;101239.94;4972991;28;20045;-67
2021/10/06 01:58:16;;;;;;;6.38;2.78;;;;;;;7.64;100.00;101240.25;4967652;28;20110;-67
2021/10/06 02:00:45;;;;;;;6.07;2.88;;;;;;;7.57;100.00;101244.47;4981460;28;20377;-66
2021/10/06 02:03:10;;;;;;;7.18;3.28;;;;;;;7.56;100.00;101245.47;4987795;28;20471;-66
2021/10/06 02:05:36;;;;;;;6.85;2.80;;;;;;;7.52;100.00;101236.06;4984258;28;20037;-67
2021/10/06 02:08:03;;;;;;;7.22;3.45;;;;;;;7.52;100.00;101241.41;4988581;28;20022;-67
2021/10/06 02:10:29;;;;;;;7.68;2.92;;;;;;;7.50;100.00;101230.84;4982493;28;20381;-64
2021/10/06 02:12:56;;;;;;;5.30;2.97;;;;;;;7.47;100.00;101231.97;4947285;28;20095;-65
2021/10/06 02:15:22;;;;;;;4.97;2.67;;;;;;;7.42;100.00;101223.53;4982851;28;20494;-64
2021/10/06 02:17:48;;;;;;;8.00;2.58;;;;;;;7.43;100.00;101222.53;4946870;28;20041;-67
2021/10/06 02:20:14;;;;;;;3.78;2.15;;;;;;;7.43;100.00;101227.03;4981652;28;20084;-68
2021/10/06 02:22:40;;;;;;;5.00;2.83;;;;;;;7.45;100.00;101220.56;4989138;28;20046;-65
2021/10/06 02:25:07;;;;;;;5.10;2.70;;;;;;;7.49;100.00;101213.94;4989946;28;20480;-64
2021/10/06 02:27:32;;;;;;;6.53;2.95;;;;;;;7.51;100.00;101215.63;4968268;28;20316;-64
2021/10/06 02:29:58;;;;;;;6.00;2.65;;;;;;;7.51;100.00;101208.44;4986561;28;20035;-65
2021/10/06 02:32:23;;;;;;;6.63;2.80;;;;;;;7.57;100.00;101217.72;4978750;28;20042;-66
2021/10/06 02:34:49;;;;;;;4.38;2.67;;;;;;;7.59;100.00;101208.53;4981802;28;20480;-64
2021/10/06 02:37:15;;;;;;;5.70;2.42;;;;;;;7.62;100.00;101204.75;4951135;28;20270;-64
2021/10/06 02:39:40;;;;;;;4.43;2.60;;;;;;;7.64;100.00;101206.28;4980268;28;20069;-65
2021/10/06 02:42:06;;;;;;;4.93;2.70;;;;;;;7.69;100.00;101205.84;4964923;28;20067;-64
2021/10/06 02:44:33;;;;;;;6.40;2.40;;;;;;;7.69;100.00;101211.22;4986319;28;20069;-65
2021/10/06 02:46:58;;;;;;;6.38;2.35;;;;;;;7.67;100.00;101207.81;4982051;28;20543;-66
2021/10/06 02:49:24;;;;;;;6.93;2.85;;;;;;;7.67;100.00;101213.19;4984784;28;20043;-64
2021/10/06 02:51:50;;;;;;;4.32;2.63;;;;;;;7.69;100.00;101209.38;4948065;28;20503;-67
2021/10/06 02:54:15;;;;;;;9.07;2.67;;;;;;;7.60;100.00;101194.19;4945774;28;20026;-67
2021/10/06 02:56:41;;;;;;;5.05;2.47;;;;;;;7.60;100.00;101207.59;4976967;28;20085;-64
2021/10/06 02:59:07;;;;;;;7.30;2.80;;;;;;;7.70;100.00;101226.28;4980540;28;20085;-66
2021/10/06 03:01:35;;;;;;;7.03;2.80;;;;;;;7.69;100.00;101214.72;4965752;28;20038;-66
2021/10/06 03:04:00;;;;;;;5.18;2.70;;;;;;;7.74;100.00;101216.97;4986688;28;20205;-66
2021/10/06 03:06:26;;;;;;;10.18;2.83;;;;;;;7.77;100.00;101219.34;4954016;28;20089;-68
2021/10/06 03:08:52;;;;;;;6.07;3.13;;;;;;;7.81;100.00;101220.75;4990058;28;20184;-65
2021/10/06 03:11:17;;;;;;;5.72;2.75;;;;;;;7.82;100.00;101213.56;4990961;28;20110;-64
2021/10/06 03:13:43;;;;;;;5.28;2.70;;;;;;;7.87;100.00;101222.00;4955304;28;20041;-67
2021/10/06 03:16:09;;;;;;;7.45;2.63;;;;;;;7.84;100.00;101206.22;4980586;28;20042;-68
2021/10/06 03:18:37;;;;;;;7.28;2.60;;;;;;;7.90;100.00;101219.84;4987002;28;20034;-70
2021/10/06 03:21:03;;;;;;;4.50;2.45;;;;;;;7.88;100.00;101218.31;4970699;28;20471;-67
2021/10/06 03:23:28;;;;;;;6.57;2.50;;;;;;;7.89;100.00;101218.19;4991740;28;20035;-66
2021/10/06 03:25:54;;;;;;;6.32;2.80;;;;;;;7.93;100.00;101216.03;4983926;28;20298;-66
2021/10/06 03:28:21;;;;;;;5.90;2.40;;;;;;;7.98;100.00;101218.28;4958782;28;20050;-71
2021/10/06 03:30:47;;;;;;;6.00;2.90;;;;;;;8.03;100.00;101213.34;4989039;28;20179;-69
2021/10/06 03:33:13;;;;;;;4.70;2.30;;;;;;;8.00;100.00;101209.13;4989277;28;20046;-65
2021/10/06 03:35:38;;;;;;;5.95;2.50;;;;;;;8.00;100.00;101205.59;4984521;28;20035;-67
2021/10/06 03:38:04;;;;;;;9.40;2.63;;;;;;;8.02;100.00;101208.94;4984325;28;20549;-67
2021/10/06 03:40:30;;;;;;;4.38;2.10;;;;;;;8.04;100.00;101215.84;4989196;28;20437;-65
2021/10/06 03:42:55;;;;;;;6.00;2.20;;;;;;;8.02;100.00;101212.50;4953345;28;20451;-67
2021/10/06 03:45:21;;;;;;;4.13;2.65;;;;;;;7.97;100.00;101200.56;4984114;28;20522;-66
2021/10/06 03:47:47;;;;;;;4.50;2.33;;;;;;;7.90;100.00;101197.59;4990785;28;20057;-68
2021/10/06 03:50:14;;;;;;;6.20;2.22;;;;;;;7.96;100.00;101199.69;5004055;28;20046;-65
2021/10/06 03:52:40;;;;;;;7.30;2.25;;;;;;;7.98;100.00;101196.88;4963354;28;20041;-67
2021/10/06 03:55:08;;;;;;;4.70;2.00;;;;;;;8.04;100.00;101201.63;4958659;28;20129;-69
2021/10/06 03:57:33;;;;;;;8.13;2.72;;;;;;;8.09;100.00;101196.66;4966831;28;20037;-65
2021/10/06 03:59:59;;;;;;;7.47;2.03;;;;;;;8.10;100.00;101185.81;4983012;28;20026;-66
2021/10/06 04:02:25;;;;;;;6.50;1.77;;;;;;;8.18;100.00;101192.25;4986179;28;20064;-67
2021/10/06 04:04:50;;;;;;;7.45;2.00;;;;;;;8.21;100.00;101191.97;4975297;28;20057;-69
2021/10/06 04:07:16;;;;;;;6.50;2.10;;;;;;;8.25;100.00;101196.00;4974169;28;20041;-67
2021/10/06 04:09:42;;;;;;;4.63;1.77;;;;;;;8.31;100.00;101192.75;4956218;28;20484;-68
2021/10/06 04:12:08;;;;;;;5.90;1.80;;;;;;;8.35;100.00;101194.97;4987946;28;20062;-70
2021/10/06 04:14:36;;;;;;;5.50;1.58;;;;;;;8.40;100.00;101196.41;4956952;28;20038;-67
2021/10/06 04:17:02;;;;;;;10.98;1.80;;;;;;;8.43;100.00;101207.63;5001317;28;20049;-70
2021/10/06 04:19:28;;;;;;;5.82;1.50;;;;;;;8.49;100.00;101196.31;4961226;28;20550;-66
2021/10/06 04:21:53;;;;;;;7.50;1.38;;;;;;;8.53;100.00;101196.88;4957019;28;20077;-66
2021/10/06 04:24:19;;;;;;;6.40;1.50;;;;;;;8.55;100.00;101195.72;4971097;28;20038;-68
2021/10/06 04:26:45;;;;;;;4.30;1.20;;;;;;;8.57;100.00;101195.56;4961440;28;20430;-69
2021/10/06 04:29:11;;;;;;;4.78;1.20;;;;;;;8.61;100.00;101196.94;5006946;28;20045;-68
2021/10/06 04:31:37;;;;;;;3.75;1.25;;;;;;;8.63;100.00;101199.50;4988301;28;20404;-68
2021/10/06 04:34:02;;;;;;;3.85;1.40;;;;;;;8.66;100.00;101196.50;4975033;28;20050;-68
2021/10/06 04:36:28;;;;;;;3.90;1.30;;;;;;;8.67;100.00;101187.44;4989608;28;20109;-67
2021/10/06 04:38:54;;;;;;;4.78;1.27;;;;;;;8.68;100.00;101184.63;4980910;28;20095;-66
2021/10/06 04:41:22;;;;;;;3.63;1.27;;;;;;;8.69;100.00;101186.31;4986322;28;20097;-68
2021/10/06 04:43:48;;;;;;;7.10;1.75;;;;;;;8.70;100.00;101190.66;4987927;28;20122;-66
2021/10/06 04:46:14;;;;;;;7.82;2.35;;;;;;;8.74;100.00;101189.38;5000420;28;20201;-68
2021/10/06 04:48:40;;;;;;;8.32;1.30;;;;;;;8.80;100.00;101198.63;4990624;28;20038;-68
2021/10/06 04:51:06;;;;;;;3.45;1.08;;;;;;;8.81;100.00;101186.91;4974197;28;20049;-68
2021/10/06 04:53:31;;;;;;;3.53;1.25;;;;;;;8.85;100.00;101190.97;4969045;28;20037;-65
2021/10/06 04:55:57;;;;;;;4.50;1.30;;;;;;;8.90;100.00;101190.53;4985579;28;20042;-67
2021/10/06 04:58:23;;;;;;;4.55;1.30;;;;;;;8.94;100.00;101190.03;4985343;28;20038;-67
2021/10/06 05:00:49;;;;;;;4.35;1.17;;;;;;;8.97;100.00;101187.06;4954422;28;20401;-66
2021/10/06 05:03:14;;;;;;;8.35;1.48;;;;;;;8.99;100.00;101186.88;4988543;28;20065;-68
2021/10/06 05:05:42;;;;;;;4.18;1.33;;;;;;;9.02;100.00;101181.22;4962202;28;20042;-66
2021/10/06 05:08:08;;;;;;;4.85;1.27;;;;;;;9.04;100.00;101184.59;4960310;28;20038;-67
2021/10/06 05:10:34;;;;;;;4.43;1.20;;;;;;;9.06;100.00;101187.97;4952596;28;20045;-65
2021/10/06 05:13:00;;;;;;;6.95;1.30;;;;;;;9.10;100.00;101188.50;4985600;28;20125;-66
2021/10/06 05:15:29;;;;;;;3.05;1.30;;;;;;;9.09;100.00;101181.44;4964436;28;20046;-67
2021/10/06 05:17:57;;;;;;;4.20;1.05;;;;;;;9.08;100.00;101183.28;4987238;28;20045;-68
2021/10/06 05:20:22;;;;;;;5.43;1.45;;;;;;;9.09;100.00;101187.66;4984640;28;20038;-67
2021/10/06 05:22:48;;;;;;;7.95;1.38;;;;;;;9.09;100.00;101178.78;4958765;28;20078;-67
2021/10/06 05:25:14;;;;;;;2.45;0.90;;;;;;;9.09;100.00;101176.09;4986490;28;20052;-65
2021/10/06 05:27:39;;;;;;;5.57;1.20;;;;;;;9.13;100.00;101182.81;4948054;28;20038;-67
2021/10/06 05:30:07;;;;;;;3.63;1.15;;;;;;;9.16;100.00;101190.56;4969725;28;20049;-66
2021/10/06 05:32:35;;;;;;;2.22;1.23;;;;;;;9.16;100.00;101182.53;4969966;28;20101;-66
2021/10/06 05:35:01;;;;;;;3.28;1.50;;;;;;;9.23;100.00;101188.91;4986205;28;20048;-64
2021/10/06 05:37:27;;;;;;;7.70;1.40;;;;;;;9.26;100.00;101185.91;4969636;28;20038;-65
2021/10/06 05:39:53;;;;;;;5.30;1.05;;;;;;;9.28;100.00;101172.38;4967204;28;20507;-65
2021/10/06 05:42:19;;;;;;;7.82;1.20;;;;;;;9.28;100.00;101177.72;4987246;28;20190;-65
2021/10/06 05:44:44;;;;;;;4.82;1.15;;;;;;;9.28;100.00;101175.03;4987380;28;20031;-68
2021/10/06 05:47:13;;;;;;;6.72;1.25;;;;;;;9.32;100.00;101173.75;4983098;28;20038;-67
2021/10/06 05:49:39;;;;;;;6.53;1.25;;;;;;;9.34;100.00;101177.09;4981949;28;20034;-66
2021/10/06 05:52:05;;;;;;;3.40;0.90;;;;;;;9.33;100.00;101183.47;4986557;28;20439;-71
2021/10/06 05:54:31;;;;;;;3.75;1.20;;;;;;;9.35;100.00;101187.69;4983740;28;20190;-66
2021/10/06 05:56:56;;;;;;;6.05;0.95;;;;;;;9.37;100.00;101182.16;4960067;28;20038;-67
2021/10/06 05:59:22;;;;;;;3.35;1.08;;;;;;;9.41;100.00;101183.53;4987862;28;20093;-68
2021/10/06 06:01:48;;;;;;;5.65;1.10;;;;;;;9.42;100.00;101190.56;4975920;28;20072;-66
2021/10/06 06:04:17;;;;;;;3.80;1.00;;;;;;;9.46;100.00;101194.63;4999643;28;20599;-66
2021/10/06 06:06:44;;;;;;;8.27;1.98;;;;;;;9.43;100.00;101193.09;4968638;28;20113;-68
2021/10/06 06:09:10;;;;;;;7.05;3.63;;;;;;;9.52;100.00;101212.78;4986928;28;20034;-68
2021/10/06 06:11:39;;;;;;;10.32;3.05;;;;;;;9.53;100.00;101208.28;4972380;28;20056;-66
2021/10/06 06:14:05;;;;;;;8.43;3.42;;;;;;;9.55;100.00;101204.44;4972950;28;20038;-67
2021/10/06 06:16:31;;;;;;;9.40;4.45;;;;;;;9.57;100.00;101212.31;4957957;28;20058;-69
2021/10/06 06:18:57;;;;;;;11.02;4.38;;;;;;;9.59;100.00;101216.53;4959993;28;20491;-66
2021/10/06 06:21:23;;;;;;;19.40;8.43;;;;;;;9.59;100.00;101215.69;4983066;28;20041;-67
2021/10/06 06:23:49;;;;;;;16.77;6.38;;;;;;;9.60;100.00;101214.66;4956466;28;20038;-68
2021/10/06 06:26:15;;;;;;;5.03;2.60;;;;;;;9.58;100.00;101212.16;4975261;28;20455;-66
2021/10/06 06:28:40;;;;;;;14.88;2.47;;;;;;;9.61;100.00;101219.91;4989955;28;20034;-65
2021/10/06 06:31:07;;;;;;;4.45;1.10;;;;;;;9.60;100.00;101212.00;4968057;28;20054;-65
2021/10/06 06:33:33;;;;;;;4.30;1.25;;;;;;;9.51;100.00;101203.06;4969315;28;20034;-64
2021/10/06 06:35:59;;;;;;;3.97;1.15;;;;;;;9.62;100.00;101226.94;4986532;28;20061;-66
2021/10/06 06:38:26;;;;;;;4.80;1.30;;;;;;;9.62;100.00;101224.25;4954258;28;20160;-66
2021/10/06 06:40:53;;;;;;;3.08;1.05;;;;;;;9.64;100.00;101226.78;4988381;28;20085;-64
2021/10/06 06:43:18;;;;;;;5.93;0.90;;;;;;;9.68;100.00;101220.09;4971246;28;20038;-65
2021/10/06 06:45:44;;;;;;;2.22;1.05;;;;;;;9.68;100.00;101226.31;4973890;28;20104;-69
2021/10/06 06:48:10;;;;;;;4.80;1.00;;;;;;;9.66;100.00;101228.31;4971911;28;20030;-68
2021/10/06 06:50:36;;;;;;;6.40;2.00;;;;;;;9.70;100.00;101228.84;4987977;28;20042;-65
2021/10/06 06:53:03;;;;;;;5.72;1.10;;;;;;;9.69;99.97;101229.84;4971546;28;20042;-67
2021/10/06 06:55:29;;;;;;;7.38;1.20;;;;;;;9.72;100.00;101242.13;4972110;28;20042;-66
2021/10/06 06:57:55;;;;;;;3.95;1.10;;;;;;;9.68;99.98;101231.69;4955438;28;20041;-67
2021/10/06 07:00:20;;;;;;;4.03;1.20;;;;;;;9.69;99.90;101249.47;4987496;28;20034;-67
2021/10/06 07:02:46;;;;;;;2.80;0.82;;;;;;;9.68;99.82;101236.19;4967371;28;20034;-66
2021/10/06 07:05:12;;;;;;;4.28;1.83;;;;;;;9.65;99.28;101236.53;4988232;28;20062;-66
2021/10/06 07:07:38;;;;;;;10.45;4.95;;;;;;;9.67;98.99;101239.91;4957471;28;20026;-68
2021/10/06 07:10:04;;;;;;;17.13;12.40;;;;;;;9.65;98.73;101226.63;4988730;28;20609;-64
2021/10/06 07:12:30;;;;;;;10.77;4.72;;;;;;;9.64;98.75;101219.56;4989587;28;20113;-65
2021/10/06 07:14:56;;;;;;;3.95;1.45;;;;;;;9.62;98.39;101200.09;4954251;28;20034;-68
2021/10/06 07:17:22;;;;;;;5.82;1.45;;;;;;;9.65;98.48;101205.13;4985801;28;20043;-64
2021/10/06 07:19:48;;;;;;;4.38;1.10;;;;;;;9.64;97.98;101210.69;4986926;28;20357;-68
2021/10/06 07:22:15;;;;;;;2.95;0.90;;;;;;;9.65;97.87;101194.41;4988580;28;20030;-68
2021/10/06 07:24:41;;;;;;;3.95;0.85;;;;;;;9.72;97.30;101208.03;4988528;28;20038;-67
2021/10/06 07:27:10;;;;;;;1.98;0.90;;;;;;;9.73;96.97;101195.44;4989667;28;20038;-64
2021/10/06 07:29:37;;;;;;;2.85;0.80;;;;;;;9.77;96.30;101188.78;4971828;28;20033;-65
2021/10/06 07:32:03;;;;;;;2.58;0.80;;;;;;;9.80;95.68;101191.97;4970256;28;20479;-64
2021/10/06 07:34:29;;;;;;;2.38;0.70;;;;;;;9.83;95.32;101188.97;4953859;28;20046;-64
2021/10/06 07:36:55;;;;;;;1.17;0.70;;;;;;;9.86;95.10;101185.94;4987756;28;20038;-65
2021/10/06 07:39:20;;;;;;;2.90;0.93;;;;;;;9.84;94.25;101174.56;4971851;28;20066;-65
2021/10/06 07:41:46;;;;;;;2.22;0.93;;;;;;;9.86;93.65;101174.38;4959815;28;20026;-67
2021/10/06 07:44:12;;;;;;;5.07;1.25;;;;;;;9.88;93.72;101164.31;4988294;28;20101;-67
2021/10/06 07:46:38;;;;;;;3.35;1.30;;;;;;;9.90;93.14;101154.25;4963012;28;20061;-68
2021/10/06 07:49:04;;;;;;;3.53;1.27;;;;;;;9.96;93.13;101156.28;4973063;28;20128;-68
2021/10/06 07:51:30;;;;;;;2.30;1.05;;;;;;;9.96;93.32;101148.22;4959413;28;20392;-65
2021/10/06 07:53:56;;;;;;;4.20;1.40;;;;;;;9.98;93.66;101151.59;4956900;28;20496;-65
2021/10/06 07:56:23;;;;;;;5.35;1.00;;;;;;;9.99;93.93;101152.44;4988895;28;20051;-65
2021/10/06 07:58:49;;;;;;;2.95;1.15;;;;;;;9.98;93.96;101156.97;4962422;28;20395;-65
2021/10/06 08:01:15;;;;;;;6.28;1.13;;;;;;;9.94;94.07;101144.84;4990544;28;20034;-65
2021/10/06 08:03:41;;;;;;;6.25;1.23;;;;;;;9.95;94.75;101141.19;4957493;28;20387;-68
2021/10/06 08:06:06;;;;;;;3.00;1.45;;;;;;;9.89;95.15;101137.28;4989363;28;20047;-65
2021/10/06 08:08:32;;;;;;;2.88;1.40;;;;;;;9.86;95.41;101128.72;4984571;28;20041;-65
2021/10/06 08:10:59;;;;;;;4.28;1.20;;;;;;;9.87;96.06;101127.69;4964496;28;20323;-66
2021/10/06 08:13:26;;;;;;;5.32;1.45;;;;;;;9.88;96.21;101132.09;4962690;28;20440;-69
2021/10/06 08:15:53;;;;;;;5.95;1.60;;;;;;;9.92;96.44;101130.75;4960557;28;20045;-66
2021/10/06 08:18:22;;;;;;;3.95;1.20;;;;;;;9.97;96.51;101136.47;4974655;28;20038;-67
2021/10/06 08:20:49;;;;;;;6.30;1.63;;;;;;;9.99;96.78;101134.47;4958996;28;20498;-65
2021/10/06 08:23:20;;;;;;;6.88;2.13;;;;;;;10.05;96.46;101135.66;4987648;28;20046;-65
2021/10/06 08:25:48;;;;;;;3.80;1.00;;;;;;;10.08;96.57;101140.69;4965827;28;20034;-67
2021/10/06 08:28:15;;;;;;;9.13;3.40;;;;;;;10.15;96.38;101140.91;4971392;28;20480;-66
2021/10/06 08:30:41;;;;;;;7.45;2.72;;;;;;;10.22;96.23;101141.94;4957785;28;20038;-66
2021/10/06 08:33:07;;;;;;;16.98;6.18;;;;;;;10.32;96.06;101131.91;4955279;28;20042;-67
2021/10/06 08:35:33;;;;;;;21.33;8.60;;;;;;;10.44;95.70;101137.81;4971404;28;20077;-67
2021/10/06 08:37:59;;;;;;;12.88;6.28;;;;;;;10.53;95.94;101143.03;4952772;28;20034;-66
2021/10/06 08:40:25;;;;;;;8.90;4.50;;;;;;;10.60;95.68;101136.97;4990938;28;20034;-68
2021/10/06 08:42:51;;;;;;;6.07;2.13;;;;;;;10.60;95.73;101132.44;4959320;28;20038;-68
2021/10/06 08:45:17;;;;;;;5.53;1.65;;;;;;;10.62;95.70;101132.28;4958541;28;20050;-67
2021/10/06 08:47:43;;;;;;;6.95;3.33;;;;;;;10.69;95.70;101134.16;4972988;28;20038;-66
2021/10/06 08:50:12;;;;;;;3.65;1.45;;;;;;;10.75;95.52;101130.78;5007366;28;20032;-69
2021/10/06 08:52:38;;;;;;;6.53;1.55;;;;;;;10.83;95.41;101131.78;4971338;28;20082;-67
2021/10/06 08:55:06;;;;;;;3.03;1.30;;;;;;;10.86;94.94;101126.91;4979129;28;20073;-65
2021/10/06 08:57:32;;;;;;;6.82;3.10;;;;;;;10.88;94.67;101127.59;4974661;28;20145;-65
2021/10/06 08:59:58;;;;;;;5.53;1.40;;;;;;;10.89;94.84;101123.88;4954299;28;20064;-66
2021/10/06 09:02:24;;;;;;;3.47;1.50;;;;;;;10.93;94.31;101122.53;4991091;28;20423;-65
2021/10/06 09:04:50;;;;;;;5.90;2.13;;;;;;;11.00;94.42;101107.38;4959867;28;20400;-66
2021/10/06 09:07:16;;;;;;;8.30;2.83;;;;;;;11.10;94.14;101109.06;4957801;28;20038;-66
2021/10/06 09:09:42;;;;;;;6.03;2.13;;;;;;;11.14;93.65;101100.47;4974415;28;20038;-65
2021/10/06 09:12:14;;;;;;;5.25;1.98;;;;;;;11.33;93.64;101104.66;4990528;28;20412;-66
2021/10/06 09:14:48;;;;;;;5.55;1.77;;;;;;;11.45;92.94;101103.25;4954349;28;20542;-65
2021/10/06 09:17:20;;;;;;;3.03;1.40;;;;;;;11.53;92.83;101097.00;4978555;28;20030;-68
2021/10/06 09:19:53;;;;;;;4.17;2.07;;;;;;;11.57;92.43;101094.81;4976500;28;20030;-66
2021/10/06 09:22:19;;;;;;;5.13;1.45;;;;;;;11.60;92.32;101102.53;4988817;28;20475;-68
2021/10/06 09:24:53;;;;;;;4.30;1.77;;;;;;;11.63;92.58;101092.25;4972168;28;20070;-68
2021/10/06 09:27:21;;;;;;;3.58;1.30;;;;;;;11.68;92.26;101101.66;4971080;28;20057;-66
2021/10/06 09:29:48;;;;;;;8.13;1.95;;;;;;;11.69;92.13;101097.94;4959282;28;20034;-67
2021/10/06 09:32:30;;;;;;;2.33;1.00;;;;;;;11.75;91.65;101102.63;4987665;28;20066;-66
2021/10/06 09:35:19;;;;;;;6.50;1.40;;;;;;;11.79;92.38;101094.03;4974058;28;20034;-66
2021/10/06 09:37:51;;;;;;;2.88;1.10;;;;;;;11.81;91.96;101096.56;4974171;28;20468;-67
2021/10/06 09:40:23;;;;;;;3.60;1.30;;;;;;;11.81;92.21;101096.56;4985317;28;20058;-66
2021/10/06 09:42:51;;;;;;;4.32;1.25;;;;;;;11.87;92.10;101096.72;4955420;28;20490;-69
2021/10/06 09:45:23;;;;;;;5.25;1.30;;;;;;;11.89;92.21;101099.25;4970747;28;20554;-65
2021/10/06 09:48:03;;;;;;;6.28;1.98;;;;;;;11.89;92.68;101099.25;4986811;28;20022;-66
2021/10/06 09:50:34;;;;;;;7.43;2.05;;;;;;;11.94;93.11;101093.34;4990696;28;20034;-64
2021/10/06 09:53:19;;;;;;;4.00;1.20;;;;;;;12.06;93.21;101103.50;4980215;28;20034;-66
2021/10/06 09:55:48;;;;;;;3.92;1.70;;;;;;;12.11;93.46;101103.00;4978476;28;20034;-67
2021/10/06 09:58:14;;;;;;;6.72;1.52;;;;;;;12.16;93.24;101106.00;4996622;28;20043;-66
2021/10/06 10:00:42;;;;;;;5.07;1.98;;;;;;;12.12;93.42;101102.00;4963566;28;20547;-64
2021/10/06 10:03:08;;;;;;;4.45;1.65;;;;;;;12.13;93.82;101109.06;4973334;28;20034;-65
2021/10/06 10:05:36;;;;;;;7.82;2.10;;;;;;;12.15;93.73;101104.31;4990555;28;20065;-67
2021/10/06 10:08:03;;;;;;;3.50;1.65;;;;;;;12.14;94.07;101094.53;4987981;28;20472;-67
2021/10/06 10:10:31;;;;;;;5.32;1.80;;;;;;;12.14;94.43;101108.03;4971423;28;20065;-67
2021/10/06 10:12:57;;;;;;;3.28;2.05;;;;;;;12.15;94.60;101098.09;4991402;28;20129;-64
2021/10/06 10:15:23;;;;;;;10.10;3.22;;;;;;;12.17;94.40;101102.31;4956710;28;20488;-65
2021/10/06 10:17:57;;;;;;;8.18;3.20;;;;;;;12.19;94.49;101102.94;4956285;28;20090;-65
2021/10/06 10:20:22;;;;;;;;;;;;;;;12.19;95.03;101097.53;4999335;28;20476;-66
2021/10/06 10:22:57;;;;;;;3.58;2.05;;;;;;;12.23;94.71;101100.75;4971205;28;19945;-65
2021/10/06 10:25:25;;;;;;;10.10;2.75;;;;;;;12.31;94.42;101098.81;4956678;28;20034;-65
2021/10/06 10:28:15;;;;;;;3.67;1.98;;;;;;;12.38;94.57;101090.84;4983416;28;20043;-65
2021/10/06 10:30:58;;;;;;;5.72;2.10;;;;;;;12.41;94.55;101084.25;4965890;28;20073;-68
2021/10/06 10:33:37;;;;;;;;;;;;;;;12.52;94.49;101090.09;5000846;28;20030;-66
2021/10/06 10:36:03;;;;;;;2.83;1.20;;;;;;;12.54;94.17;101092.56;4984542;28;19917;-67
2021/10/06 10:38:36;;;;;;;5.03;1.95;;;;;;;12.62;93.95;101094.38;4971007;28;20498;-68
2021/10/06 10:41:02;;;;;;;6.40;2.30;;;;;;;12.69;94.03;101090.78;4968073;28;20040;-68
2021/10/06 10:43:31;;;;;;;3.72;2.38;;;;;;;12.77;93.53;101093.41;4953531;28;20074;-66
2021/10/06 10:46:11;;;;;;;5.72;1.95;;;;;;;12.82;93.92;101094.72;4987654;28;20030;-66
2021/10/06 10:49:00;;;;;;;4.13;1.80;;;;;;;12.86;93.58;101098.72;4957705;28;20047;-67
2021/10/06 10:51:48;;;;;;;3.53;1.35;;;;;;;12.86;93.71;101102.28;4986856;28;20494;-67
2021/10/06 10:54:38;;;;;;;4.43;1.35;;;;;;;12.86;93.54;101112.22;4956791;28;20038;-70
2021/10/06 10:57:19;;;;;;;3.78;1.55;;;;;;;12.86;94.02;101101.41;4966269;28;20039;-66
2021/10/06 10:59:47;;;;;;;2.35;1.58;;;;;;;12.90;93.75;101108.97;4986440;28;20042;-72
2021/10/06 11:02:16;;;;;;;2.95;1.40;;;;;;;12.94;93.61;101104.91;4970561;28;20369;-68
2021/10/06 11:04:46;;;;;;;2.75;1.40;;;;;;;12.99;93.49;101098.94;4968421;28;20044;-67
2021/10/06 11:07:11;;;;;;;4.93;2.10;;;;;;;12.96;93.69;101081.25;4985338;28;20049;-69
2021/10/06 11:10:07;;;;;;;1.40;1.20;;;;;;;13.16;93.18;101099.63;4972290;28;20053;-66
2021/10/06 11:12:35;;;;;;;2.58;1.17;;;;;;;13.29;92.97;101104.44;4970220;28;20049;-65
2021/10/06 11:15:12;;;;;;;4.65;1.55;;;;;;;13.44;92.67;101099.00;4970707;28;20035;-66
2021/10/06 11:18:35;;;;;;;5.20;1.95;;;;;;;13.61;91.98;101105.91;4968471;28;20132;-67
2021/10/06 11:21:03;;;;;;;3.05;1.15;;;;;;;13.67;91.72;101107.03;4973452;28;20084;-66
2021/10/06 11:23:31;;;;;;;1.98;1.23;;;;;;;13.76;91.54;101112.16;4992610;28;20056;-70
2021/10/06 11:26:11;;;;;;;1.98;1.10;;;;;;;13.84;91.20;101113.91;4972137;28;20181;-66